Time;durP1;ratioP1;P1;durP2;ratioP2;P2;SDS_P1;SDS_P2;PMS_P1;PMS_P2;Temp;Humidity;BMP_temperature;BMP_pressure;BME280_temperature;BME280_humidity;BME280_pressure;Samples;Min_cycle;Max_cycle;Signal;HPM_P1;HPM_P2
2022/09/23 00:01:54;;;;;;;10.75;8.40;;;;;;;5.06;100.00;93345.25;5088217;28;20048;-71
2022/09/23 00:04:21;;;;;;;11.82;8.52;;;;;;;5.02;100.00;93344.03;5088446;28;20057;-71
2022/09/23 00:06:48;;;;;;;10.60;8.60;;;;;;;4.97;100.00;93343.75;5100393;28;20051;-71
2022/09/23 00:09:16;;;;;;;11.68;8.75;;;;;;;4.94;100.00;93341.53;5129509;28;20111;-71
2022/09/23 00:11:42;;;;;;;12.27;8.75;;;;;;;4.89;100.00;93343.78;5129203;28;20548;-71
2022/09/23 00:14:09;;;;;;;11.38;8.73;;;;;;;4.80;100.00;93338.78;5129724;28;20043;-71
2022/09/23 00:16:37;;;;;;;12.27;9.60;;;;;;;4.77;100.00;93339.13;5129485;28;20047;-71
2022/09/23 00:19:04;;;;;;;13.02;9.32;;;;;;;4.70;100.00;93339.97;5126356;28;20050;-71
2022/09/23 00:21:31;;;;;;;12.02;8.93;;;;;;;4.64;100.00;93334.59;5117962;28;20072;-71
2022/09/23 00:23:58;;;;;;;14.73;9.40;;;;;;;4.59;100.00;93324.16;5129205;28;20232;-72
2022/09/23 00:26:26;;;;;;;11.32;9.32;;;;;;;4.58;100.00;93329.41;5129567;28;20100;-72
2022/09/23 00:28:53;;;;;;;11.00;8.13;;;;;;;4.52;100.00;93331.66;5129125;28;20092;-72
2022/09/23 00:31:22;;;;;;;11.98;9.75;;;;;;;4.47;100.00;93320.41;5129240;28;20072;-72
2022/09/23 00:33:53;;;;;;;11.50;8.52;;;;;;;4.59;100.00;93328.44;5131824;27;20096;-71
2022/09/23 00:36:19;;;;;;;13.13;8.70;;;;;;;4.59;100.00;93326.69;5133418;27;20115;-72
2022/09/23 00:38:46;;;;;;;10.82;8.10;;;;;;;4.53;100.00;93319.72;5133630;27;20051;-72
2022/09/23 00:41:15;;;;;;;9.43;8.05;;;;;;;4.41;100.00;93306.63;5132793;27;20039;-74
2022/09/23 00:43:45;;;;;;;10.15;7.70;;;;;;;4.48;100.00;93316.88;5133062;27;20568;-72
2022/09/23 00:46:15;;;;;;;10.20;7.25;;;;;;;4.39;100.00;93319.50;5106984;27;20494;-72
2022/09/23 00:48:43;;;;;;;9.98;8.27;;;;;;;4.34;100.00;93316.66;5125849;27;20052;-72
2022/09/23 00:51:13;;;;;;;9.90;7.97;;;;;;;4.34;100.00;93323.50;5133003;27;20495;-72
2022/09/23 00:53:41;;;;;;;11.38;8.98;;;;;;;4.25;100.00;93317.66;5133106;27;20043;-72
2022/09/23 00:56:11;;;;;;;9.75;8.48;;;;;;;4.28;100.00;93324.97;5133200;27;20047;-72
2022/09/23 00:58:41;;;;;;;10.15;8.38;;;;;;;4.22;100.00;93321.34;5132516;27;20526;-72
2022/09/23 01:01:12;;;;;;;11.60;8.55;;;;;;;4.24;100.00;93321.97;5132864;27;20035;-72
2022/09/23 01:03:40;;;;;;;12.35;8.80;;;;;;;4.21;100.00;93317.22;5128018;27;20052;-72
2022/09/23 01:06:08;;;;;;;20.35;9.55;;;;;;;4.26;100.00;93322.59;5109736;27;20107;-72
2022/09/23 01:08:34;;;;;;;12.18;9.05;;;;;;;4.22;100.00;93323.09;5132269;27;20046;-72
2022/09/23 01:11:10;;;;;;;16.48;9.73;;;;;;;4.19;100.00;93320.88;5132505;27;20502;-71
2022/09/23 01:13:46;;;;;;;9.65;8.63;;;;;;;3.84;100.00;93271.19;5132391;27;20049;-71
2022/09/23 01:16:22;;;;;;;11.65;9.00;;;;;;;4.18;100.00;93325.19;5132209;27;20092;-71
2022/09/23 01:18:54;;;;;;;12.70;8.70;;;;;;;4.24;100.00;93323.72;5131470;27;20047;-71
2022/09/23 01:21:38;;;;;;;11.68;8.77;;;;;;;4.25;100.00;93326.09;5120086;27;20072;-71
2022/09/23 01:24:26;;;;;;;9.73;7.97;;;;;;;4.28;100.00;93327.50;5132477;27;20414;-71
2022/09/23 01:27:01;;;;;;;8.95;7.60;;;;;;;4.33;100.00;93327.00;5126388;27;20117;-71
2022/09/23 01:29:53;;;;;;;8.80;7.50;;;;;;;4.30;100.00;93328.13;5090822;28;20048;-71
2022/09/23 01:32:30;;;;;;;9.73;6.88;;;;;;;4.24;100.00;93323.72;5102963;28;20100;-71
2022/09/23 01:35:04;;;;;;;9.35;7.28;;;;;;;4.25;100.00;93328.63;5111105;28;20430;-72
2022/09/23 01:37:36;;;;;;;10.23;7.63;;;;;;;4.23;100.00;93334.84;5111300;28;20063;-72
2022/09/23 01:40:09;;;;;;;10.77;8.27;;;;;;;4.16;100.00;93332.19;5110958;28;20092;-72
2022/09/23 01:42:41;;;;;;;9.95;7.15;;;;;;;4.19;100.00;93336.94;5110853;28;20077;-72
2022/09/23 01:45:14;;;;;;;8.85;7.38;;;;;;;4.11;100.00;93327.59;5110952;28;20043;-72
2022/09/23 01:47:50;;;;;;;9.98;7.40;;;;;;;4.12;100.00;93336.81;5110962;28;20044;-72
2022/09/23 01:53:06;;;;;;;7.78;6.75;;;;;;;4.01;100.00;93343.06;5121744;27;19930;-72
2022/09/23 01:55:38;;;;;;;8.63;7.45;;;;;;;3.97;100.00;93343.53;5128699;27;20755;-71
2022/09/23 01:58:09;;;;;;;8.85;7.45;;;;;;;3.93;100.00;93339.75;5113537;27;20043;-71
2022/09/23 02:00:40;;;;;;;9.00;7.65;;;;;;;3.90;100.00;93340.09;5131716;27;20096;-71
2022/09/23 02:03:15;;;;;;;10.65;9.57;;;;;;;3.90;100.00;93342.63;5131887;27;20099;-70
2022/09/23 02:05:47;;;;;;;10.18;8.75;;;;;;;3.95;100.00;93343.72;5125062;27;20491;-71
2022/09/23 02:08:18;;;;;;;9.90;8.35;;;;;;;3.94;100.00;93338.81;5120162;27;20051;-71
2022/09/23 02:10:48;;;;;;;10.80;9.60;;;;;;;3.97;100.00;93341.81;5131043;27;20043;-70
2022/09/23 02:13:20;;;;;;;9.90;8.65;;;;;;;3.97;100.00;93341.81;5131515;27;20047;-71
2022/09/23 02:15:51;;;;;;;10.60;8.93;;;;;;;3.99;100.00;93327.16;5131486;27;20452;-70
2022/09/23 02:18:22;;;;;;;10.48;8.93;;;;;;;4.05;100.00;93335.09;5131338;27;20039;-70
2022/09/23 02:20:52;;;;;;;10.35;8.35;;;;;;;3.99;100.00;93339.88;5116699;27;20050;-71
2022/09/23 02:23:22;;;;;;;11.27;8.73;;;;;;;3.97;100.00;93339.25;5131200;27;20073;-71
2022/09/23 02:25:57;;;;;;;11.43;8.52;;;;;;;3.91;100.00;93327.22;5131360;27;20096;-71
2022/09/23 02:28:31;;;;;;;10.07;8.90;;;;;;;3.90;100.00;93318.00;5131350;27;20043;-71
2022/09/23 02:31:07;;;;;;;10.73;8.93;;;;;;;3.99;100.00;93332.25;5130918;27;20039;-71
2022/09/23 02:33:41;;;;;;;11.00;9.05;;;;;;;4.04;100.00;93338.59;5131155;27;20406;-71
2022/09/23 02:36:15;;;;;;;11.60;8.85;;;;;;;4.03;100.00;93331.94;5131051;27;20047;-71
2022/09/23 02:38:50;;;;;;;12.05;8.45;;;;;;;4.09;100.00;93337.16;5131126;27;20088;-71
2022/09/23 02:41:26;;;;;;;11.02;8.32;;;;;;;4.06;100.00;93332.38;5131030;27;20050;-71
2022/09/23 02:44:01;;;;;;;11.52;9.13;;;;;;;4.01;100.00;93332.91;5130851;27;20069;-70
2022/09/23 02:46:29;;;;;;;10.73;8.13;;;;;;;3.97;100.00;93338.47;5130965;27;20046;-71
2022/09/23 02:49:03;;;;;;;12.15;8.43;;;;;;;3.84;100.00;93334.69;5130800;27;20517;-71
2022/09/23 02:51:33;;;;;;;11.65;8.63;;;;;;;3.92;100.00;93346.59;5130824;27;20141;-71
2022/09/23 02:54:02;;;;;;;10.82;7.70;;;;;;;3.92;100.00;93343.25;5130835;27;20058;-71
2022/09/23 02:56:29;;;;;;;11.77;8.50;;;;;;;3.83;100.00;93348.38;5130296;27;20126;-70
2022/09/23 02:58:56;;;;;;;10.70;8.25;;;;;;;3.82;100.00;93343.44;5130609;27;20043;-70
2022/09/23 03:01:38;;;;;;;9.98;7.80;;;;;;;3.80;100.00;93353.00;5130243;27;20054;-70
2022/09/23 03:04:14;;;;;;;10.55;8.05;;;;;;;3.80;100.00;93345.38;5130330;27;20039;-70
2022/09/23 03:06:52;;;;;;;12.32;8.30;;;;;;;3.79;100.00;93349.66;5130176;27;20487;-71
2022/09/23 03:09:25;;;;;;;11.38;8.38;;;;;;;3.78;100.00;93348.06;5130400;27;20057;-71
2022/09/23 03:11:59;;;;;;;12.10;9.20;;;;;;;3.77;100.00;93348.22;5129968;27;20523;-71
2022/09/23 03:14:36;;;;;;;10.88;8.68;;;;;;;3.71;100.00;93347.16;5130419;27;20409;-71
2022/09/23 03:17:06;;;;;;;12.25;8.57;;;;;;;3.70;100.00;93340.50;5130047;27;20046;-71
2022/09/23 03:19:41;;;;;;;12.57;8.98;;;;;;;3.71;100.00;93349.69;5122959;27;20092;-71
2022/09/23 03:22:12;;;;;;;13.50;9.65;;;;;;;3.69;100.00;93343.97;5124499;27;20233;-71
2022/09/23 03:24:43;;;;;;;11.90;9.50;;;;;;;3.62;100.00;93346.38;5130327;27;20039;-71
2022/09/23 03:27:15;;;;;;;13.85;9.40;;;;;;;3.53;100.00;93347.34;5130370;27;20047;-71
2022/09/23 03:29:46;;;;;;;14.60;10.48;;;;;;;3.49;100.00;93351.97;5129961;27;20092;-71
2022/09/23 03:32:13;;;;;;;15.20;10.35;;;;;;;3.54;100.00;93342.13;5130028;27;20047;-71
2022/09/23 03:34:44;;;;;;;15.73;10.68;;;;;;;3.40;100.00;93332.63;5130190;27;20104;-71
2022/09/23 03:37:17;;;;;;;14.18;9.95;;;;;;;3.50;100.00;93345.13;5129793;27;20050;-71
2022/09/23 03:39:50;;;;;;;15.65;10.30;;;;;;;3.48;100.00;93338.47;5129896;27;20149;-71
2022/09/23 03:42:21;;;;;;;17.00;11.00;;;;;;;3.48;100.00;93340.22;5129933;27;20168;-71
2022/09/23 03:44:52;;;;;;;16.42;10.45;;;;;;;3.53;100.00;93343.06;5129665;27;20043;-71
2022/09/23 03:47:20;;;;;;;16.35;11.18;;;;;;;3.58;100.00;93340.03;5129689;27;20050;-71
2022/09/23 03:49:50;;;;;;;16.73;11.23;;;;;;;3.60;100.00;93344.00;5129681;27;20035;-71
2022/09/23 03:52:18;;;;;;;16.50;10.60;;;;;;;3.50;100.00;93340.03;5130210;27;20058;-71
2022/09/23 03:54:50;;;;;;;19.70;11.35;;;;;;;3.48;100.00;93341.00;5129839;28;20051;-71
2022/09/23 03:57:16;;;;;;;18.67;11.48;;;;;;;3.45;100.00;93341.34;5129630;28;20051;-71
2022/09/23 03:59:43;;;;;;;15.85;10.63;;;;;;;3.41;100.00;93344.34;5129807;28;20043;-71
2022/09/23 04:02:10;;;;;;;14.25;10.77;;;;;;;3.45;100.00;93345.63;5129567;28;20051;-71
2022/09/23 04:04:39;;;;;;;13.80;9.90;;;;;;;3.48;100.00;93345.31;5129764;28;20051;-71
2022/09/23 04:07:07;;;;;;;17.23;11.30;;;;;;;3.46;100.00;93344.66;5129635;27;20147;-71
2022/09/23 04:09:34;;;;;;;19.20;11.30;;;;;;;3.39;100.00;93343.72;5133356;27;20498;-71
2022/09/23 04:12:02;;;;;;;19.13;12.05;;;;;;;3.44;100.00;93344.03;5133813;27;20048;-71
2022/09/23 04:14:29;;;;;;;17.27;10.88;;;;;;;3.42;100.00;93339.13;5134027;27;20043;-71
2022/09/23 04:16:56;;;;;;;17.88;11.98;;;;;;;3.44;100.00;93333.88;5133738;27;20047;-71
2022/09/23 04:19:23;;;;;;;20.60;12.73;;;;;;;3.45;100.00;93332.91;5128033;27;20109;-71
2022/09/23 04:21:50;;;;;;;22.15;13.55;;;;;;;3.44;100.00;93337.22;5125108;27;20556;-71
2022/09/23 04:24:19;;;;;;;20.23;14.45;;;;;;;3.43;100.00;93337.38;5133657;27;20047;-71
2022/09/23 04:26:45;;;;;;;28.70;18.25;;;;;;;3.47;100.00;93341.16;5133468;27;20090;-71
2022/09/23 04:29:12;;;;;;;24.65;17.63;;;;;;;3.44;100.00;93333.88;5133148;27;20051;-71
2022/09/23 04:31:39;;;;;;;26.77;18.67;;;;;;;3.52;100.00;93341.47;5133793;27;20043;-72
2022/09/23 04:34:05;;;;;;;23.15;15.13;;;;;;;3.49;100.00;93351.97;5133877;27;20051;-72
2022/09/23 04:36:32;;;;;;;25.05;14.10;;;;;;;3.53;100.00;93345.63;5133145;27;20088;-72
2022/09/23 04:38:59;;;;;;;22.35;13.82;;;;;;;3.51;100.00;93349.28;5119230;27;20172;-73
2022/09/23 04:41:27;;;;;;;21.75;13.98;;;;;;;3.52;100.00;93354.16;5126368;27;20096;-72
2022/09/23 04:43:55;;;;;;;22.02;14.57;;;;;;;3.47;100.00;93364.00;5133400;27;20104;-73
2022/09/23 04:46:21;;;;;;;23.02;13.20;;;;;;;3.51;100.00;93357.66;5133446;27;20051;-72
2022/09/23 04:48:48;;;;;;;20.90;13.63;;;;;;;3.55;100.00;93358.94;5133216;27;20495;-72
2022/09/23 04:51:17;;;;;;;21.80;13.45;;;;;;;3.67;100.00;93361.13;5132888;27;20103;-72
2022/09/23 04:53:46;;;;;;;21.83;12.57;;;;;;;3.77;100.00;93361.72;5133214;27;20482;-73
2022/09/23 04:56:15;;;;;;;20.50;13.13;;;;;;;3.77;100.00;93351.56;5133025;27;20418;-72
2022/09/23 04:58:44;;;;;;;20.52;12.15;;;;;;;3.96;100.00;93367.38;5133377;27;20092;-73
2022/09/23 05:01:14;;;;;;;22.40;14.10;;;;;;;3.98;100.00;93368.03;5132694;27;20123;-72
2022/09/23 05:03:42;;;;;;;24.50;13.02;;;;;;;3.96;100.00;93365.63;5131953;28;20048;-72
2022/09/23 05:06:10;;;;;;;23.83;13.02;;;;;;;3.96;100.00;93364.84;5132205;28;20104;-73
2022/09/23 05:08:36;;;;;;;42.60;26.17;;;;;;;4.10;100.00;93371.78;5131626;28;20039;-73
2022/09/23 05:11:04;;;;;;;188.57;106.30;;;;;;;4.10;100.00;93374.31;5131888;28;20108;-73
2022/09/23 05:13:32;;;;;;;142.65;91.07;;;;;;;4.19;100.00;93381.91;5131646;28;20444;-73
2022/09/23 05:16:03;;;;;;;138.27;89.82;;;;;;;4.18;100.00;93375.22;5131828;28;20039;-73
2022/09/23 05:18:31;;;;;;;127.20;78.05;;;;;;;4.22;100.00;93395.06;5131605;27;20050;-73
2022/09/23 05:20:58;;;;;;;497.02;324.70;;;;;;;4.24;100.00;93393.16;5117058;28;20043;-73
2022/09/23 05:23:26;;;;;;;463.00;299.35;;;;;;;4.32;100.00;93399.16;5131658;28;20047;-73
2022/09/23 05:25:58;;;;;;;371.67;218.80;;;;;;;4.39;100.00;93398.34;5131323;28;20046;-73
2022/09/23 05:28:25;;;;;;;201.02;111.78;;;;;;;4.43;100.00;93388.63;5131304;28;20061;-73
2022/09/23 05:30:52;;;;;;;182.68;104.10;;;;;;;4.63;100.00;93399.16;5131204;28;20494;-73
2022/09/23 05:33:20;;;;;;;167.30;102.55;;;;;;;4.80;100.00;93399.88;5131189;28;20495;-73
2022/09/23 05:35:47;;;;;;;157.73;103.40;;;;;;;4.89;100.00;93405.69;5131039;28;20049;-73
2022/09/23 05:38:15;;;;;;;100.03;62.38;;;;;;;4.92;100.00;93407.09;5131281;28;20049;-73
2022/09/23 05:40:42;;;;;;;51.42;39.20;;;;;;;4.86;100.00;93403.47;5130935;28;20051;-73
2022/09/23 05:43:09;;;;;;;44.55;31.27;;;;;;;4.68;100.00;93393.59;5131310;28;20096;-73
2022/09/23 05:45:36;;;;;;;59.88;40.53;;;;;;;4.84;100.00;93404.59;5130942;28;20077;-73
2022/09/23 05:48:03;;;;;;;52.08;35.53;;;;;;;4.85;100.00;93408.75;5130828;28;20491;-73
2022/09/23 05:50:31;;;;;;;52.08;35.00;;;;;;;4.92;100.00;93404.56;5131304;28;20038;-73
2022/09/23 05:52:58;;;;;;;53.45;36.58;;;;;;;4.99;100.00;93400.38;5131331;28;20047;-73
2022/09/23 05:55:25;;;;;;;51.15;35.20;;;;;;;5.08;100.00;93398.56;5131150;28;20043;-73
2022/09/23 05:57:52;;;;;;;38.15;27.50;;;;;;;5.16;100.00;93405.34;5130494;28;20130;-73
2022/09/23 06:00:19;;;;;;;31.73;19.75;;;;;;;5.22;100.00;93395.28;5117394;28;20502;-73
2022/09/23 06:02:47;;;;;;;31.77;19.65;;;;;;;5.34;100.00;93399.94;5069871;27;1161027;-73
2022/09/23 06:05:15;;;;;;;28.45;17.98;;;;;;;5.34;100.00;93392.31;5130644;27;20514;-73
2022/09/23 06:07:43;;;;;;;33.60;22.13;;;;;;;5.29;100.00;93369.91;5131523;27;20049;-73
2022/09/23 06:10:10;;;;;;;52.95;29.55;;;;;;;5.51;100.00;93381.97;5131685;27;20149;-73
2022/09/23 06:12:37;;;;;;;33.13;18.35;;;;;;;5.69;100.00;93391.84;5131494;27;20518;-73
2022/09/23 06:15:04;;;;;;;28.38;20.02;;;;;;;5.82;100.00;93394.56;5131875;27;20092;-74
2022/09/23 06:17:31;;;;;;;34.55;21.00;;;;;;;5.98;100.00;93397.91;5132015;27;20345;-73
2022/09/23 06:19:58;;;;;;;41.75;27.85;;;;;;;6.12;100.00;93401.44;5120659;27;20101;-73
2022/09/23 06:22:25;;;;;;;35.80;21.50;;;;;;;6.30;100.00;93400.28;5127605;27;20057;-72
2022/09/23 06:24:53;;;;;;;31.25;19.15;;;;;;;6.41;100.00;93389.63;5131364;27;20051;-72
2022/09/23 06:27:19;;;;;;;33.70;20.27;;;;;;;6.55;100.00;93400.75;5131207;27;20491;-72
2022/09/23 06:29:46;;;;;;;37.50;21.67;;;;;;;6.58;100.00;93404.72;5131222;27;20043;-73
2022/09/23 06:32:13;;;;;;;35.50;20.48;;;;;;;6.59;100.00;93407.09;5131009;27;20468;-73
2022/09/23 06:34:41;;;;;;;39.35;22.48;;;;;;;6.64;100.00;93392.03;5131391;27;20099;-73
2022/09/23 06:37:07;;;;;;;36.40;20.85;;;;;;;6.73;100.00;93397.00;5130909;27;20499;-73
2022/09/23 06:39:34;;;;;;;39.58;21.40;;;;;;;6.80;100.00;93392.75;5131056;27;20047;-73
2022/09/23 06:42:05;;;;;;;45.80;29.35;;;;;;;6.91;100.00;93399.16;5130734;27;20051;-73
2022/09/23 06:44:32;;;;;;;41.95;25.00;;;;;;;7.00;100.00;93397.28;5130570;27;20039;-73
2022/09/23 06:46:59;;;;;;;43.00;22.13;;;;;;;7.17;100.00;93395.28;5131163;27;20107;-73
2022/09/23 06:49:25;;;;;;;60.20;32.72;;;;;;;7.37;100.00;93398.00;5130754;27;20548;-73
2022/09/23 06:51:54;;;;;;;52.45;26.60;;;;;;;7.45;100.00;93397.84;5130723;27;20096;-73
2022/09/23 06:54:21;;;;;;;43.70;25.17;;;;;;;7.66;100.00;93395.41;5130855;27;20043;-73
2022/09/23 06:56:48;;;;;;;42.85;22.30;;;;;;;7.87;100.00;93399.69;5130853;27;20043;-73
2022/09/23 06:59:17;;;;;;;26.30;13.82;;;;;;;8.04;100.00;93395.06;5130789;27;20116;-73
2022/09/23 07:01:46;;;;;;;26.90;14.20;;;;;;;8.21;100.00;93398.09;5130694;27;20058;-74
2022/09/23 07:04:12;;;;;;;9.98;7.70;;;;;;;8.42;100.00;93404.06;5098911;27;20392;-73
2022/09/23 07:06:39;;;;;;;13.82;9.13;;;;;;;8.59;100.00;93398.66;5126294;27;20092;-73
2022/09/23 07:09:08;;;;;;;14.55;8.85;;;;;;;8.93;100.00;93404.66;5130497;27;20127;-73
2022/09/23 07:11:36;;;;;;;13.05;8.50;;;;;;;9.11;100.00;93411.78;5130535;27;20043;-73
2022/09/23 07:14:03;;;;;;;11.63;7.93;;;;;;;9.37;100.00;93415.34;5130333;27;20567;-73
2022/09/23 07:16:31;;;;;;;13.70;7.72;;;;;;;9.43;98.19;93424.81;5130211;27;20043;-73
2022/09/23 07:18:58;;;;;;;11.90;7.28;;;;;;;9.33;97.70;93421.84;5127809;27;20043;-73
2022/09/23 07:21:26;;;;;;;11.10;6.95;;;;;;;9.10;100.00;93412.75;5118486;27;20491;-73
2022/09/23 07:23:54;;;;;;;12.68;7.35;;;;;;;8.95;100.00;93412.94;5129925;27;20047;-73
2022/09/23 07:26:21;;;;;;;14.73;9.30;;;;;;;9.00;100.00;93423.41;5130447;27;20047;-73
2022/09/23 07:28:53;;;;;;;15.30;9.40;;;;;;;9.15;100.00;93412.16;5130388;27;20047;-74
2022/09/23 07:31:19;;;;;;;16.48;9.73;;;;;;;9.28;99.63;93408.84;5130386;27;20047;-73
2022/09/23 07:33:48;;;;;;;15.02;8.55;;;;;;;9.71;100.00;93416.13;5130396;27;20043;-73
2022/09/23 07:36:17;;;;;;;15.77;8.02;;;;;;;9.61;98.46;93423.44;5129955;27;20120;-73
2022/09/23 07:38:43;;;;;;;12.52;8.38;;;;;;;9.92;98.30;93410.97;5129966;27;20491;-73
2022/09/23 07:41:13;;;;;;;15.75;9.77;;;;;;;10.23;95.54;93418.00;5129794;27;20051;-74
2022/09/23 07:43:40;;;;;;;18.15;9.43;;;;;;;10.56;93.13;93426.63;5130262;27;20043;-73
2022/09/23 07:46:09;;;;;;;17.75;9.55;;;;;;;10.64;89.44;93431.53;5130188;27;20430;-74
2022/09/23 07:48:37;;;;;;;12.85;7.60;;;;;;;11.00;89.72;93428.59;5129811;27;20131;-74
2022/09/23 07:51:09;;;;;;;14.98;8.10;;;;;;;10.75;89.78;93421.63;5130029;27;20047;-75
2022/09/23 07:53:36;;;;;;;11.75;6.68;;;;;;;10.19;91.23;93428.91;5130055;27;20093;-74
2022/09/23 07:56:05;;;;;;;13.38;7.45;;;;;;;10.24;92.96;93427.28;5130101;28;20050;-75
2022/09/23 07:58:32;;;;;;;10.15;6.30;;;;;;;10.34;91.10;93424.31;5129812;28;20058;-74
2022/09/23 08:01:03;;;;;;;14.00;6.72;;;;;;;10.02;92.92;93427.56;5129567;28;20047;-74
2022/09/23 08:03:30;;;;;;;10.35;6.53;;;;;;;10.27;93.77;93432.03;5129612;28;20047;-74
2022/09/23 08:06:04;;;;;;;9.13;5.07;;;;;;;10.32;93.09;93412.66;5129928;28;20044;-73
2022/09/23 08:08:32;;;;;;;10.48;6.30;;;;;;;10.62;93.41;93427.59;5129906;28;20459;-73
2022/09/23 08:11:02;;;;;;;5.88;4.63;;;;;;;10.64;93.25;93431.53;5129810;28;20043;-74
2022/09/23 08:13:29;;;;;;;6.85;4.28;;;;;;;10.76;89.36;93433.47;5129831;28;20050;-73
2022/09/23 08:15:56;;;;;;;6.45;4.40;;;;;;;11.16;89.96;93430.66;5129621;28;20043;-73
2022/09/23 08:18:23;;;;;;;7.47;5.53;;;;;;;11.67;90.14;93427.34;5129481;28;20078;-73
2022/09/23 08:20:50;;;;;;;8.65;5.10;;;;;;;12.18;86.20;93425.53;5115304;28;20103;-73
2022/09/23 08:23:18;;;;;;;6.60;4.60;;;;;;;12.42;81.58;93431.59;5129558;28;20039;-73
2022/09/23 08:25:47;;;;;;;6.38;3.65;;;;;;;12.61;80.21;93430.81;5129475;28;20547;-74
2022/09/23 08:28:15;;;;;;;6.40;4.20;;;;;;;12.64;79.78;93427.81;5129530;28;20051;-73
2022/09/23 08:30:42;;;;;;;6.30;4.68;;;;;;;12.46;78.52;93433.75;5129303;28;20055;-73
2022/09/23 08:33:09;;;;;;;6.35;4.20;;;;;;;11.69;82.46;93441.59;5129787;28;20039;-74
2022/09/23 08:35:36;;;;;;;6.25;4.00;;;;;;;11.80;80.05;93440.09;5129779;28;20051;-73
2022/09/23 08:38:03;;;;;;;5.72;4.50;;;;;;;11.07;83.73;93431.94;5129268;28;20384;-74
2022/09/23 08:40:32;;;;;;;7.43;4.35;;;;;;;11.19;84.08;93437.97;5129680;28;20494;-73
2022/09/23 08:43:00;;;;;;;8.02;5.55;;;;;;;11.40;86.56;93430.94;5123126;28;20453;-73
2022/09/23 08:45:28;;;;;;;6.32;4.60;;;;;;;11.54;84.24;93436.75;5121220;28;20122;-73
2022/09/23 08:48:00;;;;;;;5.03;3.85;;;;;;;11.91;82.33;93425.78;5129316;28;20147;-74
2022/09/23 08:50:31;;;;;;;5.25;4.10;;;;;;;12.26;81.17;93439.91;5129283;28;20562;-74
2022/09/23 08:53:01;;;;;;;5.45;3.90;;;;;;;12.61;78.10;93433.41;5129130;27;20039;-74
2022/09/23 08:55:33;;;;;;;5.65;3.60;;;;;;;12.62;74.52;93417.72;5132599;27;20143;-74
2022/09/23 08:58:08;;;;;;;5.72;3.42;;;;;;;12.47;70.89;93430.19;5133203;27;20089;-75
2022/09/23 09:00:41;;;;;;;4.80;3.63;;;;;;;12.31;74.00;93421.25;5133036;27;20487;-74
2022/09/23 09:03:20;;;;;;;4.30;3.42;;;;;;;12.05;74.43;93423.88;5132863;27;20390;-75
2022/09/23 09:05:48;;;;;;;4.95;3.65;;;;;;;11.79;74.53;93441.09;5132992;27;20414;-74
2022/09/23 09:08:23;;;;;;;6.07;3.58;;;;;;;11.81;74.28;93440.91;5132594;27;20035;-75
2022/09/23 09:10:54;;;;;;;7.93;3.75;;;;;;;11.94;74.10;93422.00;5132707;27;20049;-75
2022/09/23 09:13:31;;;;;;;5.65;3.30;;;;;;;11.03;74.31;93385.28;5132804;27;20443;-75
2022/09/23 09:16:15;;;;;;;3.53;2.80;;;;;;;11.74;77.06;93435.81;5132517;27;20047;-75
2022/09/23 09:18:52;;;;;;;4.40;3.33;;;;;;;11.44;78.97;93436.44;5132805;27;20047;-76
2022/09/23 09:21:24;;;;;;;6.88;5.25;;;;;;;11.66;77.92;93441.22;5107185;27;20402;-75
2022/09/23 09:23:55;;;;;;;3.90;2.95;;;;;;;11.29;76.27;93437.50;5132569;27;20047;-75
2022/09/23 09:26:24;;;;;;;4.05;3.40;;;;;;;11.69;76.51;93441.59;5132863;27;20043;-75
2022/09/23 09:28:57;;;;;;;3.28;2.75;;;;;;;11.89;75.18;93430.31;5132333;27;20104;-76
2022/09/23 09:31:29;;;;;;;5.63;4.20;;;;;;;11.86;77.97;93423.81;5132392;27;20079;-74
2022/09/23 09:34:02;;;;;;;3.85;3.25;;;;;;;12.25;78.39;93433.97;5132382;27;20047;-75
2022/09/23 09:36:38;;;;;;;4.80;3.30;;;;;;;12.35;77.28;93428.31;5132146;27;20053;-75
2022/09/23 09:39:05;;;;;;;4.40;3.70;;;;;;;12.72;78.36;93431.91;5132274;27;20047;-74
2022/09/23 09:41:32;;;;;;;4.75;3.75;;;;;;;12.74;77.40;93429.88;5103570;27;20111;-75
2022/09/23 09:44:09;;;;;;;7.20;4.53;;;;;;;13.20;75.50;93440.59;5132273;27;20063;-75
2022/09/23 09:47:00;;;;;;;4.60;3.38;;;;;;;13.54;72.72;93440.94;5131854;27;20104;-75
2022/09/23 09:49:33;;;;;;;4.60;2.78;;;;;;;13.74;69.83;93445.78;5132722;27;20046;-75
2022/09/23 09:52:22;;;;;;;4.28;2.95;;;;;;;13.74;68.93;93447.56;5132859;27;20043;-75
2022/09/23 09:54:49;;;;;;;4.68;2.83;;;;;;;13.98;67.43;93450.94;5132085;27;20459;-75
2022/09/23 09:57:30;;;;;;;3.25;2.78;;;;;;;14.08;68.37;93450.41;5132345;27;20055;-75
2022/09/23 10:00:18;;;;;;;5.18;2.75;;;;;;;14.24;67.13;93448.94;5132042;27;20040;-74
2022/09/23 10:02:48;;;;;;;3.10;2.22;;;;;;;13.98;63.92;93450.19;5131486;27;20051;-75
2022/09/23 10:05:26;;;;;;;3.03;2.22;;;;;;;14.01;64.83;93436.78;5130647;27;20057;-74
2022/09/23 10:07:53;;;;;;;3.90;3.00;;;;;;;14.13;64.06;93454.88;5131550;27;20047;-75
2022/09/23 10:10:23;;;;;;;3.70;2.55;;;;;;;13.79;65.57;93458.00;5131884;27;20501;-74
2022/09/23 10:12:51;;;;;;;5.53;3.70;;;;;;;13.66;64.81;93443.50;5131537;27;20491;-75
2022/09/23 10:15:32;;;;;;;4.15;2.00;;;;;;;12.40;67.09;93451.66;5127562;27;20524;-76
2022/09/23 10:18:01;;;;;;;3.58;2.50;;;;;;;12.35;68.67;93451.50;5123609;27;20069;-75
2022/09/23 10:20:35;;;;;;;4.03;3.10;;;;;;;12.55;72.21;93440.97;5112267;27;20559;-74
2022/09/23 10:23:07;;;;;;;3.70;2.80;;;;;;;12.78;68.73;93447.25;5124474;27;20127;-75
2022/09/23 10:25:36;;;;;;;5.47;3.15;;;;;;;13.00;67.74;93430.56;5130781;27;20483;-75
2022/09/23 10:28:30;;;;;;;6.25;3.20;;;;;;;13.26;68.79;93449.22;5131120;27;20056;-74
2022/09/23 10:31:06;;;;;;;5.78;2.90;;;;;;;13.52;65.67;93439.56;5131590;27;20099;-75
2022/09/23 10:33:35;;;;;;;4.93;3.10;;;;;;;13.79;64.67;93439.16;5130912;27;20047;-75
2022/09/23 10:36:02;;;;;;;4.95;2.10;;;;;;;13.63;61.58;93439.59;5131175;27;20051;-77
2022/09/23 10:38:28;;;;;;;5.40;2.50;;;;;;;14.01;63.14;93418.72;5130984;27;20049;-76
2022/09/23 10:46:40;;;;;;;3.88;2.47;;;;;;;15.23;62.43;93423.13;5130944;27;20050;-75
2022/09/23 10:49:58;;;;;;;5.45;2.83;;;;;;;15.77;59.43;93432.28;5130883;27;20491;-76
2022/09/23 10:52:38;;;;;;;4.15;2.00;;;;;;;15.45;55.33;93426.84;5130898;27;20043;-76
2022/09/23 10:55:20;;;;;;;6.70;4.32;;;;;;;15.42;56.29;93417.75;5131145;27;20403;-76
2022/09/23 10:58:10;;;;;;;3.60;2.00;;;;;;;15.81;57.01;93411.88;5130968;27;20039;-77
2022/09/23 11:00:45;;;;;;;4.55;2.10;;;;;;;16.08;55.52;93410.44;5130694;27;20108;-76
2022/09/23 11:03:37;;;;;;;4.50;3.27;;;;;;;15.42;53.36;93409.22;5130625;27;20058;-76
2022/09/23 11:06:15;;;;;;;2.53;1.90;;;;;;;15.04;53.63;93406.25;5130647;27;20047;-76
2022/09/23 11:09:31;;;;;;;3.38;2.30;;;;;;;15.52;56.55;93375.72;5130784;27;20043;-75
2022/09/23 11:12:08;;;;;;;2.55;1.65;;;;;;;15.98;52.54;93396.31;5114992;27;20047;-74
2022/09/23 11:14:51;;;;;;;3.33;2.15;;;;;;;16.41;52.58;93394.03;5130890;27;20491;-74
2022/09/23 11:17:45;;;;;;;4.00;1.70;;;;;;;16.81;52.65;93383.56;5129594;27;20514;-75
2022/09/23 11:20:30;;;;;;;3.92;1.80;;;;;;;17.06;48.58;93377.06;5071056;28;20453;-76
2022/09/23 11:23:41;;;;;;;2.28;1.52;;;;;;;14.49;53.62;93341.91;5103528;27;20047;-77
2022/09/23 11:26:18;;;;;;;2.40;1.50;;;;;;;14.20;56.58;93390.97;5104124;27;20402;-77
2022/09/23 11:29:25;;;;;;;3.75;2.20;;;;;;;13.70;56.46;93382.69;5130602;27;20126;-77
2022/09/23 11:32:06;;;;;;;4.30;2.75;;;;;;;13.95;57.67;93384.25;5101865;27;20119;-77
2022/09/23 11:34:48;;;;;;;4.50;3.20;;;;;;;14.37;58.35;93375.53;5129851;27;20548;-77
2022/09/23 11:37:20;;;;;;;4.75;2.83;;;;;;;14.60;57.84;93386.03;5130067;27;20042;-77
2022/09/23 11:40:02;;;;;;;3.03;2.35;;;;;;;14.65;56.21;93381.75;5130252;27;20120;-77
2022/09/23 11:42:33;;;;;;;2.72;2.00;;;;;;;14.95;55.86;93364.47;5130130;27;20051;-77
2022/09/23 11:45:05;;;;;;;2.70;2.10;;;;;;;15.23;52.75;93373.97;5129971;27;20095;-77
2022/09/23 11:47:37;;;;;;;3.13;2.33;;;;;;;14.93;52.82;93376.81;5129976;27;20508;-77
2022/09/23 11:50:14;;;;;;;5.20;3.28;;;;;;;14.93;55.06;93369.88;5130111;27;20047;-76
2022/09/23 11:52:46;;;;;;;3.92;2.80;;;;;;;15.33;53.83;93370.75;5129799;27;20392;-77